<?xml version="1.0" encoding="UTF-8" standalone="no" ?>
<gpx xmlns="http://www.topografix.com/GPX/1/1" xmlns:xsi="http://www.w3.org/2001/XMLSchema-instance" xsi:schemaLocation="http://www.topografix.com/GPX/1/1 http://www.topografix.com/GPX/1/1/gpx.xsd" version="1.1" creator="VisuGPX - https://www.visugpx.com">
  <metadata>
    <name>Ventabren</name>
    <desc><![CDATA[[b][b][/b][/b]
]]></desc>
  </metadata>
  <wpt lat="43.53481" lon="5.29917">
    <ele>242.7</ele>
    <name><![CDATA[parking]]></name>
    <type><![CDATA[picnic]]></type>
  </wpt>
  <wpt lat="43.53219" lon="5.30089">
    <ele>236.8</ele>
    <name><![CDATA[bifurcation]]></name>
  </wpt>
  <wpt lat="43.53002" lon="5.30787">
    <ele>188.9</ele>
    <name><![CDATA[route D64]]></name>
    <type><![CDATA[col]]></type>
  </wpt>
  <wpt lat="43.51968" lon="5.31411">
    <ele>182.1</ele>
    <name><![CDATA[oppidum Camp Marius]]></name>
    <type><![CDATA[patrimoine]]></type>
  </wpt>
  <wpt lat="43.53483" lon="5.29919">
    <ele>242.7</ele>
    <name><![CDATA[parking]]></name>
  </wpt>
  <wpt lat="43.53814" lon="5.29287">
    <ele>231</ele>
    <name><![CDATA[chateau de la Reine Jeane]]></name>
    <type><![CDATA[patrimoine]]></type>
  </wpt>
  <wpt lat="43.51971" lon="5.30636">
    <ele>153.9</ele>
    <name><![CDATA[Ermitage Saint Honorat]]></name>
    <type><![CDATA[patrimoine]]></type>
  </wpt>
  <trk>
    <name><![CDATA[Ventabren]]></name>
    <trkseg>
      <trkpt lat="43.53481" lon="5.29917">
        <ele>249</ele>
        <time>2020-02-04T17:06:25 01:00</time>
      </trkpt>
      <trkpt lat="43.5348" lon="5.29936">
        <ele>248</ele>
        <time>2020-02-04T17:06:30 01:00</time>
      </trkpt>
      <trkpt lat="43.53465" lon="5.2993">
        <ele>249</ele>
        <time>2020-02-04T17:06:35 01:00</time>
      </trkpt>
      <trkpt lat="43.53442" lon="5.2993">
        <ele>250</ele>
        <time>2020-02-04T17:06:40 01:00</time>
      </trkpt>
      <trkpt lat="43.53423" lon="5.29936">
        <ele>249</ele>
        <time>2020-02-04T17:06:45 01:00</time>
      </trkpt>
      <trkpt lat="43.53359" lon="5.29996">
        <ele>249</ele>
        <time>2020-02-04T17:06:50 01:00</time>
      </trkpt>
      <trkpt lat="43.53327" lon="5.30024">
        <ele>249</ele>
        <time>2020-02-04T17:06:55 01:00</time>
      </trkpt>
      <trkpt lat="43.53295" lon="5.30052">
        <ele>246</ele>
        <time>2020-02-04T17:07:00 01:00</time>
      </trkpt>
      <trkpt lat="43.53219" lon="5.30089">
        <ele>237</ele>
        <time>2020-02-04T17:07:05 01:00</time>
      </trkpt>
      <trkpt lat="43.53195" lon="5.30121">
        <ele>237</ele>
        <time>2020-02-04T17:07:10 01:00</time>
      </trkpt>
      <trkpt lat="43.5318" lon="5.30161">
        <ele>236</ele>
        <time>2020-02-04T17:07:15 01:00</time>
      </trkpt>
      <trkpt lat="43.53173" lon="5.30201">
        <ele>234</ele>
        <time>2020-02-04T17:07:20 01:00</time>
      </trkpt>
      <trkpt lat="43.53138" lon="5.30301">
        <ele>228</ele>
        <time>2020-02-04T17:07:25 01:00</time>
      </trkpt>
      <trkpt lat="43.53081" lon="5.30412">
        <ele>224</ele>
        <time>2020-02-04T17:07:30 01:00</time>
      </trkpt>
      <trkpt lat="43.53085" lon="5.30446">
        <ele>222</ele>
        <time>2020-02-04T17:07:35 01:00</time>
      </trkpt>
      <trkpt lat="43.53078" lon="5.30475">
        <ele>221</ele>
        <time>2020-02-04T17:07:40 01:00</time>
      </trkpt>
      <trkpt lat="43.53071" lon="5.30503">
        <ele>218</ele>
        <time>2020-02-04T17:07:45 01:00</time>
      </trkpt>
      <trkpt lat="43.53053" lon="5.30527">
        <ele>217</ele>
        <time>2020-02-04T17:07:50 01:00</time>
      </trkpt>
      <trkpt lat="43.53038" lon="5.30558">
        <ele>215</ele>
        <time>2020-02-04T17:07:55 01:00</time>
      </trkpt>
      <trkpt lat="43.53015" lon="5.30596">
        <ele>215</ele>
        <time>2020-02-04T17:08:00 01:00</time>
      </trkpt>
      <trkpt lat="43.52999" lon="5.30638">
        <ele>212</ele>
        <time>2020-02-04T17:08:05 01:00</time>
      </trkpt>
      <trkpt lat="43.52997" lon="5.30653">
        <ele>211</ele>
        <time>2020-02-04T17:08:10 01:00</time>
      </trkpt>
      <trkpt lat="43.52987" lon="5.30671">
        <ele>209</ele>
        <time>2020-02-04T17:08:15 01:00</time>
      </trkpt>
      <trkpt lat="43.52973" lon="5.30683">
        <ele>209</ele>
        <time>2020-02-04T17:08:20 01:00</time>
      </trkpt>
      <trkpt lat="43.52973" lon="5.30708">
        <ele>206</ele>
        <time>2020-02-04T17:08:25 01:00</time>
      </trkpt>
      <trkpt lat="43.52965" lon="5.30721">
        <ele>204</ele>
        <time>2020-02-04T17:08:30 01:00</time>
      </trkpt>
      <trkpt lat="43.5298" lon="5.30738">
        <ele>200</ele>
        <time>2020-02-04T17:08:35 01:00</time>
      </trkpt>
      <trkpt lat="43.53002" lon="5.30787">
        <ele>188</ele>
        <time>2020-02-04T17:08:40 01:00</time>
      </trkpt>
      <trkpt lat="43.53026" lon="5.30819">
        <ele>185</ele>
        <time>2020-02-04T17:08:45 01:00</time>
      </trkpt>
      <trkpt lat="43.53047" lon="5.30852">
        <ele>185</ele>
        <time>2020-02-04T17:08:50 01:00</time>
      </trkpt>
      <trkpt lat="43.53055" lon="5.30878">
        <ele>186</ele>
        <time>2020-02-04T17:08:55 01:00</time>
      </trkpt>
      <trkpt lat="43.53051" lon="5.309">
        <ele>187</ele>
        <time>2020-02-04T17:09:00 01:00</time>
      </trkpt>
      <trkpt lat="43.53037" lon="5.30968">
        <ele>190</ele>
        <time>2020-02-04T17:09:05 01:00</time>
      </trkpt>
      <trkpt lat="43.53044" lon="5.31033">
        <ele>192</ele>
        <time>2020-02-04T17:09:10 01:00</time>
      </trkpt>
      <trkpt lat="43.53068" lon="5.31151">
        <ele>190</ele>
        <time>2020-02-04T17:09:15 01:00</time>
      </trkpt>
      <trkpt lat="43.53066" lon="5.31175">
        <ele>189</ele>
        <time>2020-02-04T17:09:20 01:00</time>
      </trkpt>
      <trkpt lat="43.53058" lon="5.31187">
        <ele>189</ele>
        <time>2020-02-04T17:09:25 01:00</time>
      </trkpt>
      <trkpt lat="43.53046" lon="5.31187">
        <ele>189</ele>
        <time>2020-02-04T17:09:30 01:00</time>
      </trkpt>
      <trkpt lat="43.53" lon="5.31212">
        <ele>193</ele>
        <time>2020-02-04T17:09:35 01:00</time>
      </trkpt>
      <trkpt lat="43.52983" lon="5.31246">
        <ele>198</ele>
        <time>2020-02-04T17:09:40 01:00</time>
      </trkpt>
      <trkpt lat="43.52941" lon="5.31265">
        <ele>200</ele>
        <time>2020-02-04T17:09:45 01:00</time>
      </trkpt>
      <trkpt lat="43.52919" lon="5.31292">
        <ele>200</ele>
        <time>2020-02-04T17:09:50 01:00</time>
      </trkpt>
      <trkpt lat="43.52904" lon="5.31314">
        <ele>200</ele>
        <time>2020-02-04T17:09:55 01:00</time>
      </trkpt>
      <trkpt lat="43.52865" lon="5.3131">
        <ele>204</ele>
        <time>2020-02-04T17:10:00 01:00</time>
      </trkpt>
      <trkpt lat="43.52848" lon="5.31315">
        <ele>205</ele>
        <time>2020-02-04T17:10:05 01:00</time>
      </trkpt>
      <trkpt lat="43.52831" lon="5.31312">
        <ele>205</ele>
        <time>2020-02-04T17:10:10 01:00</time>
      </trkpt>
      <trkpt lat="43.52785" lon="5.31323">
        <ele>205</ele>
        <time>2020-02-04T17:10:15 01:00</time>
      </trkpt>
      <trkpt lat="43.52726" lon="5.31325">
        <ele>205</ele>
        <time>2020-02-04T17:10:20 01:00</time>
      </trkpt>
      <trkpt lat="43.52712" lon="5.31337">
        <ele>205</ele>
        <time>2020-02-04T17:10:25 01:00</time>
      </trkpt>
      <trkpt lat="43.52697" lon="5.3134">
        <ele>205</ele>
        <time>2020-02-04T17:10:30 01:00</time>
      </trkpt>
      <trkpt lat="43.52666" lon="5.31349">
        <ele>205</ele>
        <time>2020-02-04T17:10:35 01:00</time>
      </trkpt>
      <trkpt lat="43.52604" lon="5.3137">
        <ele>205</ele>
        <time>2020-02-04T17:10:40 01:00</time>
      </trkpt>
      <trkpt lat="43.5248" lon="5.31402">
        <ele>202</ele>
        <time>2020-02-04T17:10:45 01:00</time>
      </trkpt>
      <trkpt lat="43.52462" lon="5.31403">
        <ele>201</ele>
        <time>2020-02-04T17:10:50 01:00</time>
      </trkpt>
      <trkpt lat="43.52444" lon="5.31391">
        <ele>200</ele>
        <time>2020-02-04T17:10:55 01:00</time>
      </trkpt>
      <trkpt lat="43.52428" lon="5.31378">
        <ele>199</ele>
        <time>2020-02-04T17:11:00 01:00</time>
      </trkpt>
      <trkpt lat="43.52417" lon="5.31361">
        <ele>198</ele>
        <time>2020-02-04T17:11:05 01:00</time>
      </trkpt>
      <trkpt lat="43.52399" lon="5.31358">
        <ele>195</ele>
        <time>2020-02-04T17:11:10 01:00</time>
      </trkpt>
      <trkpt lat="43.52378" lon="5.31361">
        <ele>192</ele>
        <time>2020-02-04T17:11:15 01:00</time>
      </trkpt>
      <trkpt lat="43.52356" lon="5.3136">
        <ele>188</ele>
        <time>2020-02-04T17:11:20 01:00</time>
      </trkpt>
      <trkpt lat="43.52334" lon="5.31353">
        <ele>185</ele>
        <time>2020-02-04T17:11:25 01:00</time>
      </trkpt>
      <trkpt lat="43.5226" lon="5.3134">
        <ele>189</ele>
        <time>2020-02-04T17:11:30 01:00</time>
      </trkpt>
      <trkpt lat="43.52187" lon="5.31359">
        <ele>190</ele>
        <time>2020-02-04T17:11:35 01:00</time>
      </trkpt>
      <trkpt lat="43.52159" lon="5.31355">
        <ele>189</ele>
        <time>2020-02-04T17:11:40 01:00</time>
      </trkpt>
      <trkpt lat="43.52125" lon="5.31374">
        <ele>189</ele>
        <time>2020-02-04T17:11:45 01:00</time>
      </trkpt>
      <trkpt lat="43.5211" lon="5.31369">
        <ele>189</ele>
        <time>2020-02-04T17:11:50 01:00</time>
      </trkpt>
      <trkpt lat="43.52093" lon="5.3136">
        <ele>189</ele>
        <time>2020-02-04T17:11:55 01:00</time>
      </trkpt>
      <trkpt lat="43.52073" lon="5.3136">
        <ele>189</ele>
        <time>2020-02-04T17:12:00 01:00</time>
      </trkpt>
      <trkpt lat="43.52038" lon="5.31361">
        <ele>187</ele>
        <time>2020-02-04T17:12:05 01:00</time>
      </trkpt>
      <trkpt lat="43.52017" lon="5.31373">
        <ele>187</ele>
        <time>2020-02-04T17:12:10 01:00</time>
      </trkpt>
      <trkpt lat="43.52" lon="5.31395">
        <ele>188</ele>
        <time>2020-02-04T17:12:15 01:00</time>
      </trkpt>
      <trkpt lat="43.51988" lon="5.31394">
        <ele>188</ele>
        <time>2020-02-04T17:12:20 01:00</time>
      </trkpt>
      <trkpt lat="43.51968" lon="5.31411">
        <ele>187</ele>
        <time>2020-02-04T17:12:25 01:00</time>
      </trkpt>
      <trkpt lat="43.51933" lon="5.31439">
        <ele>186</ele>
        <time>2020-02-04T17:12:30 01:00</time>
      </trkpt>
      <trkpt lat="43.51905" lon="5.31435">
        <ele>184</ele>
        <time>2020-02-04T17:12:35 01:00</time>
      </trkpt>
      <trkpt lat="43.51893" lon="5.31415">
        <ele>183</ele>
        <time>2020-02-04T17:12:40 01:00</time>
      </trkpt>
      <trkpt lat="43.51875" lon="5.31435">
        <ele>172</ele>
        <time>2020-02-04T17:12:45 01:00</time>
      </trkpt>
      <trkpt lat="43.51887" lon="5.31406">
        <ele>183</ele>
        <time>2020-02-04T17:12:50 01:00</time>
      </trkpt>
      <trkpt lat="43.51882" lon="5.31384">
        <ele>183</ele>
        <time>2020-02-04T17:12:55 01:00</time>
      </trkpt>
      <trkpt lat="43.51872" lon="5.31338">
        <ele>185</ele>
        <time>2020-02-04T17:13:00 01:00</time>
      </trkpt>
      <trkpt lat="43.51888" lon="5.31328">
        <ele>185</ele>
        <time>2020-02-04T17:13:05 01:00</time>
      </trkpt>
      <trkpt lat="43.51889" lon="5.31306">
        <ele>185</ele>
        <time>2020-02-04T17:13:10 01:00</time>
      </trkpt>
      <trkpt lat="43.51898" lon="5.31287">
        <ele>184</ele>
        <time>2020-02-04T17:13:15 01:00</time>
      </trkpt>
      <trkpt lat="43.51905" lon="5.31246">
        <ele>181</ele>
        <time>2020-02-04T17:13:20 01:00</time>
      </trkpt>
      <trkpt lat="43.51886" lon="5.31205">
        <ele>173</ele>
        <time>2020-02-04T17:13:25 01:00</time>
      </trkpt>
      <trkpt lat="43.51871" lon="5.31194">
        <ele>171</ele>
        <time>2020-02-04T17:13:30 01:00</time>
      </trkpt>
      <trkpt lat="43.5186" lon="5.31201">
        <ele>172</ele>
        <time>2020-02-04T17:13:35 01:00</time>
      </trkpt>
      <trkpt lat="43.5184" lon="5.31172">
        <ele>164</ele>
        <time>2020-02-04T17:13:40 01:00</time>
      </trkpt>
      <trkpt lat="43.51825" lon="5.31139">
        <ele>158</ele>
        <time>2020-02-04T17:13:45 01:00</time>
      </trkpt>
      <trkpt lat="43.51816" lon="5.31103">
        <ele>156</ele>
        <time>2020-02-04T17:13:50 01:00</time>
      </trkpt>
      <trkpt lat="43.51811" lon="5.31063">
        <ele>156</ele>
        <time>2020-02-04T17:13:55 01:00</time>
      </trkpt>
      <trkpt lat="43.51827" lon="5.31046">
        <ele>152</ele>
        <time>2020-02-04T17:14:00 01:00</time>
      </trkpt>
      <trkpt lat="43.51847" lon="5.31039">
        <ele>148</ele>
        <time>2020-02-04T17:14:05 01:00</time>
      </trkpt>
      <trkpt lat="43.51867" lon="5.31063">
        <ele>146</ele>
        <time>2020-02-04T17:14:10 01:00</time>
      </trkpt>
      <trkpt lat="43.51905" lon="5.3098">
        <ele>120</ele>
        <time>2020-02-04T17:14:15 01:00</time>
      </trkpt>
      <trkpt lat="43.51906" lon="5.30968">
        <ele>116</ele>
        <time>2020-02-04T17:14:20 01:00</time>
      </trkpt>
      <trkpt lat="43.51886" lon="5.3096">
        <ele>116</ele>
        <time>2020-02-04T17:14:25 01:00</time>
      </trkpt>
      <trkpt lat="43.51847" lon="5.30934">
        <ele>111</ele>
        <time>2020-02-04T17:14:30 01:00</time>
      </trkpt>
      <trkpt lat="43.51805" lon="5.30921">
        <ele>107</ele>
        <time>2020-02-04T17:14:35 01:00</time>
      </trkpt>
      <trkpt lat="43.51746" lon="5.30823">
        <ele>123</ele>
        <time>2020-02-04T17:14:40 01:00</time>
      </trkpt>
      <trkpt lat="43.51774" lon="5.30733">
        <ele>111</ele>
        <time>2020-02-04T17:14:45 01:00</time>
      </trkpt>
      <trkpt lat="43.51802" lon="5.30693">
        <ele>117</ele>
        <time>2020-02-04T17:14:50 01:00</time>
      </trkpt>
      <trkpt lat="43.5183" lon="5.30661">
        <ele>122</ele>
        <time>2020-02-04T17:14:55 01:00</time>
      </trkpt>
      <trkpt lat="43.51846" lon="5.30651">
        <ele>122</ele>
        <time>2020-02-04T17:15:00 01:00</time>
      </trkpt>
      <trkpt lat="43.51861" lon="5.30636">
        <ele>121</ele>
        <time>2020-02-04T17:15:05 01:00</time>
      </trkpt>
      <trkpt lat="43.51877" lon="5.30628">
        <ele>124</ele>
        <time>2020-02-04T17:15:10 01:00</time>
      </trkpt>
      <trkpt lat="43.51884" lon="5.30622">
        <ele>125</ele>
        <time>2020-02-04T17:15:15 01:00</time>
      </trkpt>
      <trkpt lat="43.51894" lon="5.30618">
        <ele>125</ele>
        <time>2020-02-04T17:15:20 01:00</time>
      </trkpt>
      <trkpt lat="43.51923" lon="5.30622">
        <ele>127</ele>
        <time>2020-02-04T17:15:25 01:00</time>
      </trkpt>
      <trkpt lat="43.51951" lon="5.30634">
        <ele>133</ele>
        <time>2020-02-04T17:15:30 01:00</time>
      </trkpt>
      <trkpt lat="43.51901" lon="5.30612">
        <ele>125</ele>
        <time>2020-02-04T17:15:35 01:00</time>
      </trkpt>
      <trkpt lat="43.51876" lon="5.30616">
        <ele>126</ele>
        <time>2020-02-04T17:15:40 01:00</time>
      </trkpt>
      <trkpt lat="43.51867" lon="5.30626">
        <ele>124</ele>
        <time>2020-02-04T17:15:45 01:00</time>
      </trkpt>
      <trkpt lat="43.51852" lon="5.30634">
        <ele>123</ele>
        <time>2020-02-04T17:15:50 01:00</time>
      </trkpt>
      <trkpt lat="43.51829" lon="5.30555">
        <ele>171</ele>
        <time>2020-02-04T17:15:55 01:00</time>
      </trkpt>
      <trkpt lat="43.51923" lon="5.30495">
        <ele>180</ele>
        <time>2020-02-04T17:16:00 01:00</time>
      </trkpt>
      <trkpt lat="43.51967" lon="5.30461">
        <ele>184</ele>
        <time>2020-02-04T17:16:05 01:00</time>
      </trkpt>
      <trkpt lat="43.5201" lon="5.30421">
        <ele>188</ele>
        <time>2020-02-04T17:16:10 01:00</time>
      </trkpt>
      <trkpt lat="43.52082" lon="5.30394">
        <ele>192</ele>
        <time>2020-02-04T17:16:15 01:00</time>
      </trkpt>
      <trkpt lat="43.5214" lon="5.3034">
        <ele>200</ele>
        <time>2020-02-04T17:16:20 01:00</time>
      </trkpt>
      <trkpt lat="43.52168" lon="5.30307">
        <ele>205</ele>
        <time>2020-02-04T17:16:25 01:00</time>
      </trkpt>
      <trkpt lat="43.52194" lon="5.30282">
        <ele>205</ele>
        <time>2020-02-04T17:16:30 01:00</time>
      </trkpt>
      <trkpt lat="43.52249" lon="5.30209">
        <ele>210</ele>
        <time>2020-02-04T17:16:35 01:00</time>
      </trkpt>
      <trkpt lat="43.5229" lon="5.30178">
        <ele>213</ele>
        <time>2020-02-04T17:16:40 01:00</time>
      </trkpt>
      <trkpt lat="43.52345" lon="5.30136">
        <ele>219</ele>
        <time>2020-02-04T17:16:45 01:00</time>
      </trkpt>
      <trkpt lat="43.52403" lon="5.30094">
        <ele>222</ele>
        <time>2020-02-04T17:16:50 01:00</time>
      </trkpt>
      <trkpt lat="43.52432" lon="5.30071">
        <ele>224</ele>
        <time>2020-02-04T17:16:55 01:00</time>
      </trkpt>
      <trkpt lat="43.52396" lon="5.30067">
        <ele>225</ele>
        <time>2020-02-04T17:17:00 01:00</time>
      </trkpt>
      <trkpt lat="43.5238" lon="5.30057">
        <ele>225</ele>
        <time>2020-02-04T17:17:05 01:00</time>
      </trkpt>
      <trkpt lat="43.5235" lon="5.30025">
        <ele>224</ele>
        <time>2020-02-04T17:17:10 01:00</time>
      </trkpt>
      <trkpt lat="43.52337" lon="5.30002">
        <ele>224</ele>
        <time>2020-02-04T17:17:15 01:00</time>
      </trkpt>
      <trkpt lat="43.52364" lon="5.29943">
        <ele>226</ele>
        <time>2020-02-04T17:17:20 01:00</time>
      </trkpt>
      <trkpt lat="43.52387" lon="5.29907">
        <ele>227</ele>
        <time>2020-02-04T17:17:25 01:00</time>
      </trkpt>
      <trkpt lat="43.5241" lon="5.2988">
        <ele>227</ele>
        <time>2020-02-04T17:17:30 01:00</time>
      </trkpt>
      <trkpt lat="43.52427" lon="5.29872">
        <ele>228</ele>
        <time>2020-02-04T17:17:35 01:00</time>
      </trkpt>
      <trkpt lat="43.52445" lon="5.29865">
        <ele>229</ele>
        <time>2020-02-04T17:17:40 01:00</time>
      </trkpt>
      <trkpt lat="43.52465" lon="5.2984">
        <ele>227</ele>
        <time>2020-02-04T17:17:45 01:00</time>
      </trkpt>
      <trkpt lat="43.52484" lon="5.29846">
        <ele>229</ele>
        <time>2020-02-04T17:17:50 01:00</time>
      </trkpt>
      <trkpt lat="43.52502" lon="5.29841">
        <ele>230</ele>
        <time>2020-02-04T17:17:55 01:00</time>
      </trkpt>
      <trkpt lat="43.5254" lon="5.29814">
        <ele>231</ele>
        <time>2020-02-04T17:18:00 01:00</time>
      </trkpt>
      <trkpt lat="43.52582" lon="5.29787">
        <ele>233</ele>
        <time>2020-02-04T17:18:05 01:00</time>
      </trkpt>
      <trkpt lat="43.52598" lon="5.29781">
        <ele>232</ele>
        <time>2020-02-04T17:18:10 01:00</time>
      </trkpt>
      <trkpt lat="43.52611" lon="5.29785">
        <ele>233</ele>
        <time>2020-02-04T17:18:15 01:00</time>
      </trkpt>
      <trkpt lat="43.52667" lon="5.29801">
        <ele>234</ele>
        <time>2020-02-04T17:18:20 01:00</time>
      </trkpt>
      <trkpt lat="43.52681" lon="5.29823">
        <ele>234</ele>
        <time>2020-02-04T17:18:25 01:00</time>
      </trkpt>
      <trkpt lat="43.52698" lon="5.29815">
        <ele>234</ele>
        <time>2020-02-04T17:18:30 01:00</time>
      </trkpt>
      <trkpt lat="43.52727" lon="5.29816">
        <ele>234</ele>
        <time>2020-02-04T17:18:35 01:00</time>
      </trkpt>
      <trkpt lat="43.5275" lon="5.2981">
        <ele>233</ele>
        <time>2020-02-04T17:18:40 01:00</time>
      </trkpt>
      <trkpt lat="43.52783" lon="5.29795">
        <ele>232</ele>
        <time>2020-02-04T17:18:45 01:00</time>
      </trkpt>
      <trkpt lat="43.52818" lon="5.29791">
        <ele>230</ele>
        <time>2020-02-04T17:18:50 01:00</time>
      </trkpt>
      <trkpt lat="43.52871" lon="5.29803">
        <ele>227</ele>
        <time>2020-02-04T17:18:55 01:00</time>
      </trkpt>
      <trkpt lat="43.52891" lon="5.29805">
        <ele>229</ele>
        <time>2020-02-04T17:19:00 01:00</time>
      </trkpt>
      <trkpt lat="43.52911" lon="5.29804">
        <ele>230</ele>
        <time>2020-02-04T17:19:05 01:00</time>
      </trkpt>
      <trkpt lat="43.52925" lon="5.2981">
        <ele>230</ele>
        <time>2020-02-04T17:19:10 01:00</time>
      </trkpt>
      <trkpt lat="43.52952" lon="5.29806">
        <ele>232</ele>
        <time>2020-02-04T17:19:15 01:00</time>
      </trkpt>
      <trkpt lat="43.52981" lon="5.29811">
        <ele>234</ele>
        <time>2020-02-04T17:19:20 01:00</time>
      </trkpt>
      <trkpt lat="43.53016" lon="5.29819">
        <ele>235</ele>
        <time>2020-02-04T17:19:25 01:00</time>
      </trkpt>
      <trkpt lat="43.53034" lon="5.29806">
        <ele>237</ele>
        <time>2020-02-04T17:19:30 01:00</time>
      </trkpt>
      <trkpt lat="43.5306" lon="5.29774">
        <ele>239</ele>
        <time>2020-02-04T17:19:35 01:00</time>
      </trkpt>
      <trkpt lat="43.53075" lon="5.29763">
        <ele>240</ele>
        <time>2020-02-04T17:19:40 01:00</time>
      </trkpt>
      <trkpt lat="43.53089" lon="5.29764">
        <ele>241</ele>
        <time>2020-02-04T17:19:45 01:00</time>
      </trkpt>
      <trkpt lat="43.53108" lon="5.2977">
        <ele>241</ele>
        <time>2020-02-04T17:19:50 01:00</time>
      </trkpt>
      <trkpt lat="43.53124" lon="5.29763">
        <ele>242</ele>
        <time>2020-02-04T17:19:55 01:00</time>
      </trkpt>
      <trkpt lat="43.53151" lon="5.29735">
        <ele>244</ele>
        <time>2020-02-04T17:20:00 01:00</time>
      </trkpt>
      <trkpt lat="43.5318" lon="5.29712">
        <ele>245</ele>
        <time>2020-02-04T17:20:05 01:00</time>
      </trkpt>
      <trkpt lat="43.5321" lon="5.29698">
        <ele>245</ele>
        <time>2020-02-04T17:20:10 01:00</time>
      </trkpt>
      <trkpt lat="43.5324" lon="5.29692">
        <ele>246</ele>
        <time>2020-02-04T17:20:15 01:00</time>
      </trkpt>
      <trkpt lat="43.53283" lon="5.29686">
        <ele>247</ele>
        <time>2020-02-04T17:20:20 01:00</time>
      </trkpt>
      <trkpt lat="43.53322" lon="5.29674">
        <ele>248</ele>
        <time>2020-02-04T17:20:25 01:00</time>
      </trkpt>
      <trkpt lat="43.53385" lon="5.29649">
        <ele>247</ele>
        <time>2020-02-04T17:20:30 01:00</time>
      </trkpt>
      <trkpt lat="43.53409" lon="5.29613">
        <ele>248</ele>
        <time>2020-02-04T17:20:35 01:00</time>
      </trkpt>
      <trkpt lat="43.53427" lon="5.29556">
        <ele>248</ele>
        <time>2020-02-04T17:20:40 01:00</time>
      </trkpt>
      <trkpt lat="43.53439" lon="5.29521">
        <ele>249</ele>
        <time>2020-02-04T17:20:45 01:00</time>
      </trkpt>
      <trkpt lat="43.53448" lon="5.29478">
        <ele>250</ele>
        <time>2020-02-04T17:20:50 01:00</time>
      </trkpt>
      <trkpt lat="43.53462" lon="5.2944">
        <ele>249</ele>
        <time>2020-02-04T17:20:55 01:00</time>
      </trkpt>
      <trkpt lat="43.53496" lon="5.29476">
        <ele>251</ele>
        <time>2020-02-04T17:21:00 01:00</time>
      </trkpt>
      <trkpt lat="43.53534" lon="5.29502">
        <ele>251</ele>
        <time>2020-02-04T17:21:05 01:00</time>
      </trkpt>
      <trkpt lat="43.53554" lon="5.29508">
        <ele>252</ele>
        <time>2020-02-04T17:21:10 01:00</time>
      </trkpt>
      <trkpt lat="43.53584" lon="5.29505">
        <ele>253</ele>
        <time>2020-02-04T17:21:15 01:00</time>
      </trkpt>
      <trkpt lat="43.53595" lon="5.29486">
        <ele>253</ele>
        <time>2020-02-04T17:21:20 01:00</time>
      </trkpt>
      <trkpt lat="43.53612" lon="5.29455">
        <ele>254</ele>
        <time>2020-02-04T17:21:25 01:00</time>
      </trkpt>
      <trkpt lat="43.5363" lon="5.29425">
        <ele>254</ele>
        <time>2020-02-04T17:21:30 01:00</time>
      </trkpt>
      <trkpt lat="43.53665" lon="5.29365">
        <ele>255</ele>
        <time>2020-02-04T17:21:35 01:00</time>
      </trkpt>
      <trkpt lat="43.53703" lon="5.29303">
        <ele>255</ele>
        <time>2020-02-04T17:21:40 01:00</time>
      </trkpt>
      <trkpt lat="43.53728" lon="5.29289">
        <ele>254</ele>
        <time>2020-02-04T17:21:45 01:00</time>
      </trkpt>
      <trkpt lat="43.53751" lon="5.29258">
        <ele>253</ele>
        <time>2020-02-04T17:21:50 01:00</time>
      </trkpt>
      <trkpt lat="43.53806" lon="5.29287">
        <ele>242</ele>
        <time>2020-02-04T17:21:55 01:00</time>
      </trkpt>
      <trkpt lat="43.53779" lon="5.29325">
        <ele>248</ele>
        <time>2020-02-04T17:22:00 01:00</time>
      </trkpt>
      <trkpt lat="43.53755" lon="5.29364">
        <ele>247</ele>
        <time>2020-02-04T17:22:05 01:00</time>
      </trkpt>
      <trkpt lat="43.53679" lon="5.29394">
        <ele>252</ele>
        <time>2020-02-04T17:22:10 01:00</time>
      </trkpt>
      <trkpt lat="43.53648" lon="5.29401">
        <ele>254</ele>
        <time>2020-02-04T17:22:15 01:00</time>
      </trkpt>
      <trkpt lat="43.53613" lon="5.2946">
        <ele>254</ele>
        <time>2020-02-04T17:22:20 01:00</time>
      </trkpt>
      <trkpt lat="43.53586" lon="5.29512">
        <ele>253</ele>
        <time>2020-02-04T17:22:25 01:00</time>
      </trkpt>
      <trkpt lat="43.53533" lon="5.29713">
        <ele>251</ele>
        <time>2020-02-04T17:22:30 01:00</time>
      </trkpt>
      <trkpt lat="43.53483" lon="5.29919">
        <ele>249</ele>
        <time>2020-02-04T17:22:35 01:00</time>
      </trkpt>
    </trkseg>
  </trk>
</gpx>